sensor_id;sensor_type;location;lat;lon;timestamp;temperature;humidity
53752;DHT22;41095;53.090;6.692;2023-07-31T00:02:07;16.10;99.90
53752;DHT22;41095;53.090;6.692;2023-07-31T00:04:32;16.10;99.90
53752;DHT22;41095;53.090;6.692;2023-07-31T00:06:58;16.10;99.90
53752;DHT22;41095;53.090;6.692;2023-07-31T00:09:24;16.10;99.90
53752;DHT22;41095;53.090;6.692;2023-07-31T00:11:49;16.00;99.90
53752;DHT22;41095;53.090;6.692;2023-07-31T00:14:15;16.00;99.90
53752;DHT22;41095;53.090;6.692;2023-07-31T00:16:41;16.00;99.90
53752;DHT22;41095;53.090;6.692;2023-07-31T00:19:06;16.00;99.90
53752;DHT22;41095;53.090;6.692;2023-07-31T00:21:32;16.00;99.90
53752;DHT22;41095;53.090;6.692;2023-07-31T00:23:58;15.90;99.90
53752;DHT22;41095;53.090;6.692;2023-07-31T00:26:23;16.00;99.90
53752;DHT22;41095;53.090;6.692;2023-07-31T00:28:49;16.00;99.90
53752;DHT22;41095;53.090;6.692;2023-07-31T00:31:14;15.90;99.90
53752;DHT22;41095;53.090;6.692;2023-07-31T00:33:40;15.90;99.90
53752;DHT22;41095;53.090;6.692;2023-07-31T00:36:06;15.90;99.90
53752;DHT22;41095;53.090;6.692;2023-07-31T00:38:31;15.90;99.90
53752;DHT22;41095;53.090;6.692;2023-07-31T00:40:57;15.90;99.90
53752;DHT22;41095;53.090;6.692;2023-07-31T00:43:23;15.90;99.90
53752;DHT22;41095;53.090;6.692;2023-07-31T00:45:48;15.90;99.90
53752;DHT22;41095;53.090;6.692;2023-07-31T00:48:14;15.80;99.90
53752;DHT22;41095;53.090;6.692;2023-07-31T00:50:40;15.80;99.90
53752;DHT22;41095;53.090;6.692;2023-07-31T00:53:06;15.90;99.90
53752;DHT22;41095;53.090;6.692;2023-07-31T00:55:32;15.90;99.90
53752;DHT22;41095;53.090;6.692;2023-07-31T00:57:58;15.90;99.90
53752;DHT22;41095;53.090;6.692;2023-07-31T01:00:23;15.90;99.90
53752;DHT22;41095;53.090;6.692;2023-07-31T01:02:50;15.80;99.90
53752;DHT22;41095;53.090;6.692;2023-07-31T01:05:19;15.90;99.90
53752;DHT22;41095;53.090;6.692;2023-07-31T01:10:40;15.90;99.90
53752;DHT22;41095;53.090;6.692;2023-07-31T01:13:07;15.80;99.90
53752;DHT22;41095;53.090;6.692;2023-07-31T01:15:33;15.90;99.90
53752;DHT22;41095;53.090;6.692;2023-07-31T01:17:59;15.80;99.90
53752;DHT22;41095;53.090;6.692;2023-07-31T01:20:27;15.80;99.90
53752;DHT22;41095;53.090;6.692;2023-07-31T01:23:20;15.90;99.90
53752;DHT22;41095;53.090;6.692;2023-07-31T01:26:05;15.80;99.90
53752;DHT22;41095;53.090;6.692;2023-07-31T01:29:33;15.90;99.90
53752;DHT22;41095;53.090;6.692;2023-07-31T01:31:33;15.80;99.90
53752;DHT22;41095;53.090;6.692;2023-07-31T01:34:03;15.80;99.90
53752;DHT22;41095;53.090;6.692;2023-07-31T01:36:30;15.80;99.90
53752;DHT22;41095;53.090;6.692;2023-07-31T01:39:01;15.80;99.90
53752;DHT22;41095;53.090;6.692;2023-07-31T01:41:27;15.90;99.90
53752;DHT22;41095;53.090;6.692;2023-07-31T01:43:53;15.80;99.90
53752;DHT22;41095;53.090;6.692;2023-07-31T01:46:18;15.80;99.90
53752;DHT22;41095;53.090;6.692;2023-07-31T01:48:44;15.80;99.90
53752;DHT22;41095;53.090;6.692;2023-07-31T01:51:09;15.70;99.90
53752;DHT22;41095;53.090;6.692;2023-07-31T01:53:35;15.80;99.90
53752;DHT22;41095;53.090;6.692;2023-07-31T01:56:01;15.80;99.90
53752;DHT22;41095;53.090;6.692;2023-07-31T01:58:26;15.80;99.90
53752;DHT22;41095;53.090;6.692;2023-07-31T02:00:52;15.80;99.90
53752;DHT22;41095;53.090;6.692;2023-07-31T02:03:18;15.80;99.90
53752;DHT22;41095;53.090;6.692;2023-07-31T02:05:47;15.80;99.90
53752;DHT22;41095;53.090;6.692;2023-07-31T02:08:14;15.80;99.90
53752;DHT22;41095;53.090;6.692;2023-07-31T02:10:40;15.80;99.90
53752;DHT22;41095;53.090;6.692;2023-07-31T02:13:06;15.80;99.90
53752;DHT22;41095;53.090;6.692;2023-07-31T02:15:32;15.80;99.90
53752;DHT22;41095;53.090;6.692;2023-07-31T02:17:58;15.80;99.90
53752;DHT22;41095;53.090;6.692;2023-07-31T02:20:23;15.80;99.90
53752;DHT22;41095;53.090;6.692;2023-07-31T02:22:49;15.90;99.90
53752;DHT22;41095;53.090;6.692;2023-07-31T02:25:15;15.80;99.90
53752;DHT22;41095;53.090;6.692;2023-07-31T02:27:41;15.80;99.90
53752;DHT22;41095;53.090;6.692;2023-07-31T02:30:07;15.70;99.90
53752;DHT22;41095;53.090;6.692;2023-07-31T02:32:33;15.80;99.90
53752;DHT22;41095;53.090;6.692;2023-07-31T02:34:58;15.80;99.90
53752;DHT22;41095;53.090;6.692;2023-07-31T02:37:25;15.80;99.90
53752;DHT22;41095;53.090;6.692;2023-07-31T02:39:50;15.80;99.90
53752;DHT22;41095;53.090;6.692;2023-07-31T02:42:16;15.80;99.90
53752;DHT22;41095;53.090;6.692;2023-07-31T02:44:42;15.80;99.90
53752;DHT22;41095;53.090;6.692;2023-07-31T02:47:07;15.80;99.90
53752;DHT22;41095;53.090;6.692;2023-07-31T02:49:33;15.80;99.90
53752;DHT22;41095;53.090;6.692;2023-07-31T02:51:59;15.80;99.90
53752;DHT22;41095;53.090;6.692;2023-07-31T02:54:24;15.80;99.90
53752;DHT22;41095;53.090;6.692;2023-07-31T02:56:50;15.80;99.90
53752;DHT22;41095;53.090;6.692;2023-07-31T02:59:17;15.80;99.90
53752;DHT22;41095;53.090;6.692;2023-07-31T03:01:42;15.80;99.90
53752;DHT22;41095;53.090;6.692;2023-07-31T03:04:08;15.80;99.90
53752;DHT22;41095;53.090;6.692;2023-07-31T03:06:34;15.80;99.90
53752;DHT22;41095;53.090;6.692;2023-07-31T03:08:59;15.80;99.90
53752;DHT22;41095;53.090;6.692;2023-07-31T03:11:25;15.80;99.90
53752;DHT22;41095;53.090;6.692;2023-07-31T03:13:51;15.90;99.90
53752;DHT22;41095;53.090;6.692;2023-07-31T03:16:16;15.90;99.90
53752;DHT22;41095;53.090;6.692;2023-07-31T03:18:42;15.90;99.90
53752;DHT22;41095;53.090;6.692;2023-07-31T03:21:08;15.90;99.90
53752;DHT22;41095;53.090;6.692;2023-07-31T03:23:33;15.80;99.90
53752;DHT22;41095;53.090;6.692;2023-07-31T03:26:01;15.90;99.90
53752;DHT22;41095;53.090;6.692;2023-07-31T03:28:29;15.90;99.90
53752;DHT22;41095;53.090;6.692;2023-07-31T03:30:54;15.90;99.90
53752;DHT22;41095;53.090;6.692;2023-07-31T03:33:20;15.90;99.90
53752;DHT22;41095;53.090;6.692;2023-07-31T03:35:46;16.00;99.90
53752;DHT22;41095;53.090;6.692;2023-07-31T03:38:12;16.00;99.90
53752;DHT22;41095;53.090;6.692;2023-07-31T03:40:37;16.00;99.90
53752;DHT22;41095;53.090;6.692;2023-07-31T03:43:03;16.00;99.90
53752;DHT22;41095;53.090;6.692;2023-07-31T03:45:29;16.20;99.90
53752;DHT22;41095;53.090;6.692;2023-07-31T03:47:54;16.00;99.90
53752;DHT22;41095;53.090;6.692;2023-07-31T03:50:20;16.00;99.90
53752;DHT22;41095;53.090;6.692;2023-07-31T03:52:46;16.00;99.90
53752;DHT22;41095;53.090;6.692;2023-07-31T03:55:12;16.00;99.90
53752;DHT22;41095;53.090;6.692;2023-07-31T03:57:38;16.10;99.90
53752;DHT22;41095;53.090;6.692;2023-07-31T04:00:04;16.00;99.90
53752;DHT22;41095;53.090;6.692;2023-07-31T04:02:29;16.10;99.90
53752;DHT22;41095;53.090;6.692;2023-07-31T04:04:55;16.10;99.90
53752;DHT22;41095;53.090;6.692;2023-07-31T04:07:21;16.10;99.90
53752;DHT22;41095;53.090;6.692;2023-07-31T04:09:46;16.10;99.90
53752;DHT22;41095;53.090;6.692;2023-07-31T04:12:12;16.10;99.90
53752;DHT22;41095;53.090;6.692;2023-07-31T04:14:38;16.10;99.90
53752;DHT22;41095;53.090;6.692;2023-07-31T04:17:03;16.10;99.90
53752;DHT22;41095;53.090;6.692;2023-07-31T04:19:29;16.10;99.90
53752;DHT22;41095;53.090;6.692;2023-07-31T04:21:55;16.20;99.90
53752;DHT22;41095;53.090;6.692;2023-07-31T04:24:20;16.20;99.90
53752;DHT22;41095;53.090;6.692;2023-07-31T04:26:53;16.20;99.90
53752;DHT22;41095;53.090;6.692;2023-07-31T04:29:19;16.20;99.90
53752;DHT22;41095;53.090;6.692;2023-07-31T04:31:45;16.30;99.90
53752;DHT22;41095;53.090;6.692;2023-07-31T04:34:10;16.30;99.90
53752;DHT22;41095;53.090;6.692;2023-07-31T04:36:37;16.20;99.90
53752;DHT22;41095;53.090;6.692;2023-07-31T04:39:03;16.30;99.90
53752;DHT22;41095;53.090;6.692;2023-07-31T04:41:28;16.30;99.90
53752;DHT22;41095;53.090;6.692;2023-07-31T04:43:54;16.30;99.90
53752;DHT22;41095;53.090;6.692;2023-07-31T04:46:20;16.30;99.90
53752;DHT22;41095;53.090;6.692;2023-07-31T04:48:45;16.20;99.90
53752;DHT22;41095;53.090;6.692;2023-07-31T04:51:11;16.40;99.90
53752;DHT22;41095;53.090;6.692;2023-07-31T04:53:37;16.20;99.90
53752;DHT22;41095;53.090;6.692;2023-07-31T04:56:03;16.30;99.90
53752;DHT22;41095;53.090;6.692;2023-07-31T04:58:28;16.30;99.90
53752;DHT22;41095;53.090;6.692;2023-07-31T05:00:54;16.30;99.90
53752;DHT22;41095;53.090;6.692;2023-07-31T05:03:20;16.30;99.90
53752;DHT22;41095;53.090;6.692;2023-07-31T05:05:45;16.20;99.90
53752;DHT22;41095;53.090;6.692;2023-07-31T05:08:11;16.30;99.90
53752;DHT22;41095;53.090;6.692;2023-07-31T05:10:37;16.30;99.90
53752;DHT22;41095;53.090;6.692;2023-07-31T05:13:03;16.30;99.90
53752;DHT22;41095;53.090;6.692;2023-07-31T05:15:29;16.30;99.90
53752;DHT22;41095;53.090;6.692;2023-07-31T05:17:55;16.30;99.90
53752;DHT22;41095;53.090;6.692;2023-07-31T05:20:21;16.30;99.90
53752;DHT22;41095;53.090;6.692;2023-07-31T05:22:47;16.20;99.90
53752;DHT22;41095;53.090;6.692;2023-07-31T05:25:12;16.30;99.90
53752;DHT22;41095;53.090;6.692;2023-07-31T05:27:38;16.30;99.90
53752;DHT22;41095;53.090;6.692;2023-07-31T05:30:05;16.30;99.90
53752;DHT22;41095;53.090;6.692;2023-07-31T05:32:31;16.20;99.90
53752;DHT22;41095;53.090;6.692;2023-07-31T05:34:56;16.20;99.90
53752;DHT22;41095;53.090;6.692;2023-07-31T05:37:22;16.20;99.90
53752;DHT22;41095;53.090;6.692;2023-07-31T05:39:48;16.20;99.90
53752;DHT22;41095;53.090;6.692;2023-07-31T05:42:14;16.20;99.90
53752;DHT22;41095;53.090;6.692;2023-07-31T05:44:39;16.20;99.90
53752;DHT22;41095;53.090;6.692;2023-07-31T05:47:05;16.20;99.90
53752;DHT22;41095;53.090;6.692;2023-07-31T05:49:31;16.30;99.90
53752;DHT22;41095;53.090;6.692;2023-07-31T05:51:56;16.30;99.90
53752;DHT22;41095;53.090;6.692;2023-07-31T05:54:22;16.40;99.90
53752;DHT22;41095;53.090;6.692;2023-07-31T05:56:48;16.40;99.90
53752;DHT22;41095;53.090;6.692;2023-07-31T05:59:13;16.40;99.90
53752;DHT22;41095;53.090;6.692;2023-07-31T06:01:39;16.50;99.90
53752;DHT22;41095;53.090;6.692;2023-07-31T06:04:05;16.40;99.90
53752;DHT22;41095;53.090;6.692;2023-07-31T06:06:31;16.40;99.90
53752;DHT22;41095;53.090;6.692;2023-07-31T06:08:57;16.50;99.90
53752;DHT22;41095;53.090;6.692;2023-07-31T06:11:22;16.40;99.90
53752;DHT22;41095;53.090;6.692;2023-07-31T06:13:48;16.50;99.90
53752;DHT22;41095;53.090;6.692;2023-07-31T06:16:15;16.60;99.90
53752;DHT22;41095;53.090;6.692;2023-07-31T06:18:42;16.60;99.90
53752;DHT22;41095;53.090;6.692;2023-07-31T06:21:09;16.80;99.90
53752;DHT22;41095;53.090;6.692;2023-07-31T06:23:35;16.90;99.90
53752;DHT22;41095;53.090;6.692;2023-07-31T06:26:01;17.10;99.90
53752;DHT22;41095;53.090;6.692;2023-07-31T06:28:30;17.20;99.90
53752;DHT22;41095;53.090;6.692;2023-07-31T06:30:57;17.30;99.90
53752;DHT22;41095;53.090;6.692;2023-07-31T06:33:23;17.30;99.90
53752;DHT22;41095;53.090;6.692;2023-07-31T06:35:49;17.40;99.90
53752;DHT22;41095;53.090;6.692;2023-07-31T06:38:14;17.50;99.90
53752;DHT22;41095;53.090;6.692;2023-07-31T06:40:40;17.40;99.90
53752;DHT22;41095;53.090;6.692;2023-07-31T06:43:06;17.40;99.90
53752;DHT22;41095;53.090;6.692;2023-07-31T06:45:35;17.50;99.90
53752;DHT22;41095;53.090;6.692;2023-07-31T06:48:02;17.40;99.90
53752;DHT22;41095;53.090;6.692;2023-07-31T06:50:31;17.40;99.90
53752;DHT22;41095;53.090;6.692;2023-07-31T06:52:57;17.50;99.90
53752;DHT22;41095;53.090;6.692;2023-07-31T06:55:23;17.60;99.90
53752;DHT22;41095;53.090;6.692;2023-07-31T06:57:51;17.60;99.90
53752;DHT22;41095;53.090;6.692;2023-07-31T07:00:18;17.60;99.90
53752;DHT22;41095;53.090;6.692;2023-07-31T07:02:45;17.60;99.90
53752;DHT22;41095;53.090;6.692;2023-07-31T07:05:13;17.70;99.90
53752;DHT22;41095;53.090;6.692;2023-07-31T07:07:39;17.70;99.90
53752;DHT22;41095;53.090;6.692;2023-07-31T07:10:05;17.70;99.90
53752;DHT22;41095;53.090;6.692;2023-07-31T07:12:32;17.70;99.90
53752;DHT22;41095;53.090;6.692;2023-07-31T07:14:59;17.80;99.90
53752;DHT22;41095;53.090;6.692;2023-07-31T07:17:26;17.80;99.90
53752;DHT22;41095;53.090;6.692;2023-07-31T07:19:52;17.80;99.90
53752;DHT22;41095;53.090;6.692;2023-07-31T07:22:18;17.80;99.90
53752;DHT22;41095;53.090;6.692;2023-07-31T07:24:44;17.80;99.90
53752;DHT22;41095;53.090;6.692;2023-07-31T07:27:09;17.70;99.90
53752;DHT22;41095;53.090;6.692;2023-07-31T07:29:35;17.70;99.90
53752;DHT22;41095;53.090;6.692;2023-07-31T07:32:01;17.60;99.90
53752;DHT22;41095;53.090;6.692;2023-07-31T07:34:27;17.50;99.90
53752;DHT22;41095;53.090;6.692;2023-07-31T07:36:53;17.60;99.90
53752;DHT22;41095;53.090;6.692;2023-07-31T07:39:19;17.60;99.90
53752;DHT22;41095;53.090;6.692;2023-07-31T07:41:46;17.50;99.90
53752;DHT22;41095;53.090;6.692;2023-07-31T07:44:12;17.60;99.90
53752;DHT22;41095;53.090;6.692;2023-07-31T07:46:38;17.50;99.90
53752;DHT22;41095;53.090;6.692;2023-07-31T07:49:04;17.50;99.90
53752;DHT22;41095;53.090;6.692;2023-07-31T07:51:30;17.50;99.90
53752;DHT22;41095;53.090;6.692;2023-07-31T07:53:57;17.50;99.90
53752;DHT22;41095;53.090;6.692;2023-07-31T07:56:25;17.50;99.90
53752;DHT22;41095;53.090;6.692;2023-07-31T07:58:51;17.50;99.90
53752;DHT22;41095;53.090;6.692;2023-07-31T08:01:17;17.50;99.90
53752;DHT22;41095;53.090;6.692;2023-07-31T08:03:43;17.40;99.90
53752;DHT22;41095;53.090;6.692;2023-07-31T08:06:09;17.40;99.90
53752;DHT22;41095;53.090;6.692;2023-07-31T08:08:35;17.30;99.90
53752;DHT22;41095;53.090;6.692;2023-07-31T08:11:01;17.40;99.90
53752;DHT22;41095;53.090;6.692;2023-07-31T08:13:27;17.40;99.90
53752;DHT22;41095;53.090;6.692;2023-07-31T08:15:52;17.60;99.90
53752;DHT22;41095;53.090;6.692;2023-07-31T08:18:18;17.60;99.90
53752;DHT22;41095;53.090;6.692;2023-07-31T08:20:44;17.60;99.90
53752;DHT22;41095;53.090;6.692;2023-07-31T08:23:10;17.60;99.90
53752;DHT22;41095;53.090;6.692;2023-07-31T08:25:36;17.70;99.90
53752;DHT22;41095;53.090;6.692;2023-07-31T08:28:03;17.70;99.90
53752;DHT22;41095;53.090;6.692;2023-07-31T08:30:28;17.70;99.90
53752;DHT22;41095;53.090;6.692;2023-07-31T08:32:54;17.70;99.90
53752;DHT22;41095;53.090;6.692;2023-07-31T08:35:20;17.70;99.90
53752;DHT22;41095;53.090;6.692;2023-07-31T08:37:45;17.70;99.90
53752;DHT22;41095;53.090;6.692;2023-07-31T08:40:11;17.80;99.90
53752;DHT22;41095;53.090;6.692;2023-07-31T08:42:48;17.80;99.90
53752;DHT22;41095;53.090;6.692;2023-07-31T08:45:17;17.90;99.90
53752;DHT22;41095;53.090;6.692;2023-07-31T08:47:51;17.90;99.90
53752;DHT22;41095;53.090;6.692;2023-07-31T08:50:21;17.90;99.90
53752;DHT22;41095;53.090;6.692;2023-07-31T08:52:48;18.10;99.90
53752;DHT22;41095;53.090;6.692;2023-07-31T08:55:14;18.10;99.90
53752;DHT22;41095;53.090;6.692;2023-07-31T08:57:42;18.10;99.90
53752;DHT22;41095;53.090;6.692;2023-07-31T09:00:09;18.20;99.90
53752;DHT22;41095;53.090;6.692;2023-07-31T09:02:38;18.20;99.90
53752;DHT22;41095;53.090;6.692;2023-07-31T09:05:07;18.30;99.90
53752;DHT22;41095;53.090;6.692;2023-07-31T09:07:36;18.40;99.90
53752;DHT22;41095;53.090;6.692;2023-07-31T09:10:03;18.50;99.90
53752;DHT22;41095;53.090;6.692;2023-07-31T09:12:30;18.50;99.90
53752;DHT22;41095;53.090;6.692;2023-07-31T09:14:57;18.60;99.90
53752;DHT22;41095;53.090;6.692;2023-07-31T09:17:34;18.60;99.90
53752;DHT22;41095;53.090;6.692;2023-07-31T09:20:25;18.60;99.90
53752;DHT22;41095;53.090;6.692;2023-07-31T09:22:51;18.60;99.90
53752;DHT22;41095;53.090;6.692;2023-07-31T09:25:22;18.70;99.90
53752;DHT22;41095;53.090;6.692;2023-07-31T09:30:21;18.70;99.90
53752;DHT22;41095;53.090;6.692;2023-07-31T09:32:49;18.70;99.90
53752;DHT22;41095;53.090;6.692;2023-07-31T09:35:27;18.70;99.90
53752;DHT22;41095;53.090;6.692;2023-07-31T09:37:55;18.70;99.90
53752;DHT22;41095;53.090;6.692;2023-07-31T09:40:28;18.80;99.90
53752;DHT22;41095;53.090;6.692;2023-07-31T09:43:01;18.90;99.90
53752;DHT22;41095;53.090;6.692;2023-07-31T09:45:28;19.00;99.90
53752;DHT22;41095;53.090;6.692;2023-07-31T09:47:54;19.10;99.90
53752;DHT22;41095;53.090;6.692;2023-07-31T09:50:22;19.10;99.90
53752;DHT22;41095;53.090;6.692;2023-07-31T09:52:48;19.30;99.90
53752;DHT22;41095;53.090;6.692;2023-07-31T09:55:14;19.50;99.90
53752;DHT22;41095;53.090;6.692;2023-07-31T09:57:41;19.50;99.90
53752;DHT22;41095;53.090;6.692;2023-07-31T10:00:11;19.50;99.90
53752;DHT22;41095;53.090;6.692;2023-07-31T10:02:38;19.50;99.90
53752;DHT22;41095;53.090;6.692;2023-07-31T10:05:05;19.50;99.90
53752;DHT22;41095;53.090;6.692;2023-07-31T10:07:36;19.80;99.90
53752;DHT22;41095;53.090;6.692;2023-07-31T10:10:04;19.90;99.90
53752;DHT22;41095;53.090;6.692;2023-07-31T10:12:31;20.00;99.90
53752;DHT22;41095;53.090;6.692;2023-07-31T10:14:59;19.90;99.90
53752;DHT22;41095;53.090;6.692;2023-07-31T10:17:26;20.00;99.90
53752;DHT22;41095;53.090;6.692;2023-07-31T10:19:53;20.00;99.90
53752;DHT22;41095;53.090;6.692;2023-07-31T10:22:20;20.00;99.90
53752;DHT22;41095;53.090;6.692;2023-07-31T10:24:46;19.90;99.90
53752;DHT22;41095;53.090;6.692;2023-07-31T10:27:14;19.90;99.90
53752;DHT22;41095;53.090;6.692;2023-07-31T10:29:41;19.90;99.90
53752;DHT22;41095;53.090;6.692;2023-07-31T10:32:09;20.00;99.90
53752;DHT22;41095;53.090;6.692;2023-07-31T10:34:36;20.20;99.90
53752;DHT22;41095;53.090;6.692;2023-07-31T10:37:25;20.10;99.90
53752;DHT22;41095;53.090;6.692;2023-07-31T10:40:05;20.10;99.90
53752;DHT22;41095;53.090;6.692;2023-07-31T10:45:01;20.10;99.90
53752;DHT22;41095;53.090;6.692;2023-07-31T10:47:27;20.10;99.90
53752;DHT22;41095;53.090;6.692;2023-07-31T10:50:17;20.10;99.90
53752;DHT22;41095;53.090;6.692;2023-07-31T10:52:48;20.00;99.90
53752;DHT22;41095;53.090;6.692;2023-07-31T10:55:26;20.00;99.90
53752;DHT22;41095;53.090;6.692;2023-07-31T10:57:53;19.90;99.90
53752;DHT22;41095;53.090;6.692;2023-07-31T11:00:25;20.10;99.90
53752;DHT22;41095;53.090;6.692;2023-07-31T11:02:58;20.10;99.90
53752;DHT22;41095;53.090;6.692;2023-07-31T11:06:00;20.10;99.90
53752;DHT22;41095;53.090;6.692;2023-07-31T11:08:35;19.90;99.90
53752;DHT22;41095;53.090;6.692;2023-07-31T11:11:10;19.80;99.90
53752;DHT22;41095;53.090;6.692;2023-07-31T11:13:50;19.70;99.90
53752;DHT22;41095;53.090;6.692;2023-07-31T11:16:18;19.60;99.90
53752;DHT22;41095;53.090;6.692;2023-07-31T11:18:45;19.60;99.90
53752;DHT22;41095;53.090;6.692;2023-07-31T11:21:23;19.60;99.90
53752;DHT22;41095;53.090;6.692;2023-07-31T11:23:50;19.70;99.90
53752;DHT22;41095;53.090;6.692;2023-07-31T11:26:17;19.70;99.90
53752;DHT22;41095;53.090;6.692;2023-07-31T11:28:45;19.60;99.90
53752;DHT22;41095;53.090;6.692;2023-07-31T11:31:11;19.50;99.90
53752;DHT22;41095;53.090;6.692;2023-07-31T11:33:37;19.40;99.90
53752;DHT22;41095;53.090;6.692;2023-07-31T11:36:03;19.20;99.90
53752;DHT22;41095;53.090;6.692;2023-07-31T11:38:30;19.20;99.90
53752;DHT22;41095;53.090;6.692;2023-07-31T11:41:02;19.20;99.90
53752;DHT22;41095;53.090;6.692;2023-07-31T11:43:28;19.20;99.90
53752;DHT22;41095;53.090;6.692;2023-07-31T11:45:58;19.10;99.90
53752;DHT22;41095;53.090;6.692;2023-07-31T11:48:32;19.10;99.90
53752;DHT22;41095;53.090;6.692;2023-07-31T11:51:03;19.20;99.90
53752;DHT22;41095;53.090;6.692;2023-07-31T11:53:45;19.30;99.90
53752;DHT22;41095;53.090;6.692;2023-07-31T11:56:13;19.40;99.90
53752;DHT22;41095;53.090;6.692;2023-07-31T11:58:40;19.60;99.90
53752;DHT22;41095;53.090;6.692;2023-07-31T12:01:06;19.90;99.90
53752;DHT22;41095;53.090;6.692;2023-07-31T12:03:33;20.20;99.90
53752;DHT22;41095;53.090;6.692;2023-07-31T12:05:59;20.50;99.90
53752;DHT22;41095;53.090;6.692;2023-07-31T12:08:25;20.80;99.90
53752;DHT22;41095;53.090;6.692;2023-07-31T12:10:52;21.10;99.90
53752;DHT22;41095;53.090;6.692;2023-07-31T12:13:22;21.20;99.90
53752;DHT22;41095;53.090;6.692;2023-07-31T12:15:49;21.30;99.90
53752;DHT22;41095;53.090;6.692;2023-07-31T12:18:19;21.30;99.90
53752;DHT22;41095;53.090;6.692;2023-07-31T12:20:46;21.40;99.90
53752;DHT22;41095;53.090;6.692;2023-07-31T12:23:20;21.30;99.90
53752;DHT22;41095;53.090;6.692;2023-07-31T12:26:15;21.30;99.90
53752;DHT22;41095;53.090;6.692;2023-07-31T12:28:49;21.20;99.90
53752;DHT22;41095;53.090;6.692;2023-07-31T12:31:16;21.10;99.90
53752;DHT22;41095;53.090;6.692;2023-07-31T12:33:46;21.10;99.90
53752;DHT22;41095;53.090;6.692;2023-07-31T12:36:14;21.00;99.90
53752;DHT22;41095;53.090;6.692;2023-07-31T12:38:40;21.00;99.90
53752;DHT22;41095;53.090;6.692;2023-07-31T12:41:07;21.00;99.90
53752;DHT22;41095;53.090;6.692;2023-07-31T12:43:37;20.90;99.90
53752;DHT22;41095;53.090;6.692;2023-07-31T12:46:03;20.70;99.90
53752;DHT22;41095;53.090;6.692;2023-07-31T12:48:29;20.50;99.90
53752;DHT22;41095;53.090;6.692;2023-07-31T12:50:55;20.30;99.90
53752;DHT22;41095;53.090;6.692;2023-07-31T12:53:21;20.20;99.90
53752;DHT22;41095;53.090;6.692;2023-07-31T12:55:46;20.10;99.90
53752;DHT22;41095;53.090;6.692;2023-07-31T12:58:12;20.00;99.90
53752;DHT22;41095;53.090;6.692;2023-07-31T13:00:38;19.90;99.90
53752;DHT22;41095;53.090;6.692;2023-07-31T13:03:04;19.80;99.90
53752;DHT22;41095;53.090;6.692;2023-07-31T13:05:30;19.60;99.90
53752;DHT22;41095;53.090;6.692;2023-07-31T13:07:56;19.50;99.90
53752;DHT22;41095;53.090;6.692;2023-07-31T13:10:24;19.40;99.90
53752;DHT22;41095;53.090;6.692;2023-07-31T13:12:52;19.40;99.90
53752;DHT22;41095;53.090;6.692;2023-07-31T13:15:18;19.40;99.90
53752;DHT22;41095;53.090;6.692;2023-07-31T13:17:43;19.50;99.90
53752;DHT22;41095;53.090;6.692;2023-07-31T13:20:09;19.50;99.90
53752;DHT22;41095;53.090;6.692;2023-07-31T13:22:35;19.60;99.90
53752;DHT22;41095;53.090;6.692;2023-07-31T13:25:01;19.70;99.90
53752;DHT22;41095;53.090;6.692;2023-07-31T13:27:27;19.80;99.90
53752;DHT22;41095;53.090;6.692;2023-07-31T13:29:52;19.80;99.90
53752;DHT22;41095;53.090;6.692;2023-07-31T13:32:19;19.80;99.90
53752;DHT22;41095;53.090;6.692;2023-07-31T13:34:45;19.90;99.90
53752;DHT22;41095;53.090;6.692;2023-07-31T13:37:11;20.00;99.90
53752;DHT22;41095;53.090;6.692;2023-07-31T13:39:37;20.10;99.90
53752;DHT22;41095;53.090;6.692;2023-07-31T13:42:03;20.10;99.90
53752;DHT22;41095;53.090;6.692;2023-07-31T13:44:32;20.20;99.90
53752;DHT22;41095;53.090;6.692;2023-07-31T13:46:59;20.30;99.90
53752;DHT22;41095;53.090;6.692;2023-07-31T13:49:25;20.40;99.90
53752;DHT22;41095;53.090;6.692;2023-07-31T13:51:51;20.40;99.90
53752;DHT22;41095;53.090;6.692;2023-07-31T13:54:16;20.40;99.90
53752;DHT22;41095;53.090;6.692;2023-07-31T13:56:43;20.40;99.90
53752;DHT22;41095;53.090;6.692;2023-07-31T13:59:08;20.50;99.90
53752;DHT22;41095;53.090;6.692;2023-07-31T14:01:34;20.70;99.90
53752;DHT22;41095;53.090;6.692;2023-07-31T14:04:00;20.70;99.90
53752;DHT22;41095;53.090;6.692;2023-07-31T14:06:25;20.80;99.90
53752;DHT22;41095;53.090;6.692;2023-07-31T14:08:51;20.90;99.90
53752;DHT22;41095;53.090;6.692;2023-07-31T14:11:17;21.00;99.90
53752;DHT22;41095;53.090;6.692;2023-07-31T14:13:42;21.10;99.90
53752;DHT22;41095;53.090;6.692;2023-07-31T14:16:08;21.10;99.90
53752;DHT22;41095;53.090;6.692;2023-07-31T14:18:34;21.20;99.90
53752;DHT22;41095;53.090;6.692;2023-07-31T14:21:00;21.20;99.90
53752;DHT22;41095;53.090;6.692;2023-07-31T14:23:25;21.20;99.90
53752;DHT22;41095;53.090;6.692;2023-07-31T14:25:51;21.20;99.90
53752;DHT22;41095;53.090;6.692;2023-07-31T14:28:17;21.10;99.90
53752;DHT22;41095;53.090;6.692;2023-07-31T14:30:42;21.10;99.90
53752;DHT22;41095;53.090;6.692;2023-07-31T14:33:08;21.00;99.90
53752;DHT22;41095;53.090;6.692;2023-07-31T14:35:34;20.90;99.90
53752;DHT22;41095;53.090;6.692;2023-07-31T14:38:01;20.90;99.90
53752;DHT22;41095;53.090;6.692;2023-07-31T14:40:26;20.90;99.90
53752;DHT22;41095;53.090;6.692;2023-07-31T14:42:52;20.90;99.90
53752;DHT22;41095;53.090;6.692;2023-07-31T14:45:18;20.90;99.90
53752;DHT22;41095;53.090;6.692;2023-07-31T14:47:44;20.90;99.90
53752;DHT22;41095;53.090;6.692;2023-07-31T14:50:10;20.90;99.90
53752;DHT22;41095;53.090;6.692;2023-07-31T14:52:36;20.80;99.90
53752;DHT22;41095;53.090;6.692;2023-07-31T14:55:01;20.80;99.90
53752;DHT22;41095;53.090;6.692;2023-07-31T14:57:27;20.70;99.90
53752;DHT22;41095;53.090;6.692;2023-07-31T14:59:53;20.70;99.90
53752;DHT22;41095;53.090;6.692;2023-07-31T15:02:18;20.70;99.90
53752;DHT22;41095;53.090;6.692;2023-07-31T15:04:44;20.70;99.90
53752;DHT22;41095;53.090;6.692;2023-07-31T15:07:10;20.70;99.90
53752;DHT22;41095;53.090;6.692;2023-07-31T15:09:35;20.70;99.90
53752;DHT22;41095;53.090;6.692;2023-07-31T15:12:01;20.60;99.90
53752;DHT22;41095;53.090;6.692;2023-07-31T15:14:27;20.50;99.90
53752;DHT22;41095;53.090;6.692;2023-07-31T15:16:53;20.50;99.90
53752;DHT22;41095;53.090;6.692;2023-07-31T15:19:19;20.60;99.90
53752;DHT22;41095;53.090;6.692;2023-07-31T15:21:45;20.60;99.90
53752;DHT22;41095;53.090;6.692;2023-07-31T15:24:11;20.50;99.90
53752;DHT22;41095;53.090;6.692;2023-07-31T15:26:39;20.50;99.90
53752;DHT22;41095;53.090;6.692;2023-07-31T15:29:08;20.50;99.90
53752;DHT22;41095;53.090;6.692;2023-07-31T15:31:41;20.40;99.90
53752;DHT22;41095;53.090;6.692;2023-07-31T15:34:07;20.40;99.90
53752;DHT22;41095;53.090;6.692;2023-07-31T15:36:33;20.40;99.90
53752;DHT22;41095;53.090;6.692;2023-07-31T15:38:59;20.40;99.90